Pacific Princess — ZCDS3 — position and weather

sailwx.info

Track history (hours):
 
Tides and Currents Weather Stations Pressure Air Temp Water Temp Dewpoint Dewpoint Depression Visibility Wind Speed Wind Dir Waves Ship Positions

Pacific Princess (Bermuda)

Last reported at 2018-Apr-19 23:00 UTC. Time now 2018-Apr-20 06:29 UTC.
Position N 34°12' W 032°12'.

Length 180.5 m; beam 25.6 m; draft 6 m.

Type: Passenger vessel. MMSI: 310504000.

Wind from 010 at 15 knots

Barometer 1033.8 mb
Air temperature 16.5 ° C
Visibility: greater than 10.8 NM
Dewpoint 13.9 ° C
Water temperature 20.0 ° C

Date/timePositionNaut miles runAvg speedWind from/ knotsBaromVisibWave heightAir tempDewpointWater temp
2018-Apr-19 23:00N 34°12' W 032°12'8020.1 010 / 151033.810.8 16.513.920.0
2018-Apr-19 19:00N 34°00' W 030°36'20617.2 360 / 151031.310.8 17.514.018.0
2018-Apr-19 07:00N 33°36' W 026°30'14215.8 350 / 271024.510.8 16.013.318.0
2018-Apr-18 22:00N 33°12' W 023°42'7619.1 310 / 151022.510.8 15.513.720.0
2018-Apr-18 18:00N 33°00' W 022°12'11414.2 270 / 51020.810.8 18.014.620.0
2018-Apr-18 10:00N 32°36' W 024°24'31478.6 350 / 121020.410.8 19.116.520.0
2018-Apr-18 06:00N 32°18' W 018°12'10616.1 220 / 121019.210.8 18.516.020.0
2018-Apr-17 23:27N 31°60' W 016°09'2518.5
2018-Apr-17 22:06N 31°60' W 015°40'218.8
2018-Apr-17 22:00N 31°60' W 015°38'1018.8
2018-Apr-17 21:29N 32°00' W 015°26'918.8
2018-Apr-17 21:00N 32°00' W 015°16'1318.8
2018-Apr-17 20:19N 31°60' W 015°00'619.1
2018-Apr-17 20:00N 32°00' W 014°53'919.0
2018-Apr-17 19:30N 31°60' W 014°42'919.0
2018-Apr-17 19:00N 32°00' W 014°31'2120.8
2018-Apr-17 18:00N 32°00' W 014°06'23918.4 050 / 121019.610.8 19.517.016.0
2018-Apr-17 05:00N 34°00' W 010°00'245 7.6 070 / 151021.210.8 15.013.214.0
2018-Apr-15 20:47N 35°57' W 005°37'3 9.2
2018-Apr-15 20:30N 35°58' W 005°34'510.4
2018-Apr-15 20:00N 35°60' W 005°28'5 9.7
2018-Apr-15 19:29N 36°03' W 005°23'611.6
2018-Apr-15 19:00N 36°09' W 005°23'1 0.2
2018-Apr-15 15:01N 36°09' W 005°22'0 0.0
2018-Apr-15 13:40N 36°09' W 005°22'0 0.0
2018-Apr-15 13:16N 36°09' W 005°22'0 0.0
2018-Apr-15 04:49N 36°09' W 005°22'0 1.1
2018-Apr-15 04:29N 36°09' W 005°22'3 6.9
2018-Apr-15 04:00N 36°05' W 005°21'611.3
2018-Apr-15 03:30N 36°05' W 005°14'8412.9
2018-Apr-14 21:00N 36°12' W 003°30'4912.2 270 / 301018.010.8 16.013.914.0
2018-Apr-14 17:00N 36°18' W 002°30'9417.7 240 / 271014.110.8 17.015.314.0
2018-Apr-14 11:39N 37°17' W 000°58'317.3
2018-Apr-14 11:28N 37°19' W 000°55'817.3
2018-Apr-14 11:01N 37°24' W 000°47'1017.3
2018-Apr-14 10:25N 37°31' W 000°38'717.6
2018-Apr-14 10:00N 37°36' W 000°31'817.1
2018-Apr-14 09:30N 37°43' W 000°25'917.5
2018-Apr-14 09:01N 37°51' W 000°19'917.5
2018-Apr-14 08:30N 37°58' W 000°13'27779.0
2018-Apr-14 05:00N 41°36' E 003°30'75 8.5 340 / 131013.610.8 15.011.312.0
2018-Apr-13 20:11N 41°01' E 002°02'317.4
2018-Apr-13 20:00N 41°04' E 002°04'917.3
2018-Apr-13 19:31N 41°12' E 002°09'714.8
2018-Apr-13 19:00N 41°19' E 002°10'2 3.7
2018-Apr-13 18:30N 41°21' E 002°10'0 0.0
2018-Apr-13 18:00N 41°21' E 002°10'0 0.0
2018-Apr-13 16:51N 41°21' E 002°10'0 0.0
2018-Apr-13 16:30N 41°21' E 002°10'0 0.0
2018-Apr-13 16:00N 41°21' E 002°10'0 0.0
2018-Apr-13 15:30N 41°21' E 002°10'0 0.0
2018-Apr-13 15:00N 41°21' E 002°10'0 0.0
2018-Apr-13 14:30N 41°21' E 002°10'0 0.0
2018-Apr-13 14:00N 41°21' E 002°10'0 0.0
2018-Apr-13 13:27N 41°21' E 002°10'0 0.0
2018-Apr-13 13:00N 41°21' E 002°10'0 0.0
2018-Apr-13 12:30N 41°21' E 002°10'0 0.0
2018-Apr-13 12:00N 41°21' E 002°10'0 0.0
2018-Apr-13 11:30N 41°21' E 002°10'0 0.0
2018-Apr-13 11:00N 41°21' E 002°10'0 0.0
2018-Apr-13 10:30N 41°21' E 002°11'0 0.0
2018-Apr-13 10:00N 41°21' E 002°11'0 0.0
2018-Apr-13 09:30N 41°21' E 002°10'0 0.0
2018-Apr-13 09:00N 41°21' E 002°11'0 0.0
2018-Apr-13 08:30N 41°21' E 002°11'0 0.0
2018-Apr-13 06:54N 41°21' E 002°10'0 0.0
2018-Apr-13 06:27N 41°21' E 002°10'0 0.0
2018-Apr-13 06:00N 41°21' E 002°10'0 0.0
2018-Apr-13 05:30N 41°21' E 002°10'0 0.0
2018-Apr-13 05:00N 41°21' E 002°10'0 0.0
2018-Apr-13 04:30N 41°21' E 002°10'0 0.0
2018-Apr-13 03:54N 41°21' E 002°10'0 0.0
2018-Apr-13 03:30N 41°21' E 002°10'0 0.0
2018-Apr-13 03:00N 41°21' E 002°10'0 0.0
2018-Apr-13 02:30N 41°21' E 002°10'0 0.0
2018-Apr-13 02:00N 41°21' E 002°10'0 0.0
2018-Apr-13 01:30N 41°21' E 002°10'0 0.0
2018-Apr-13 01:00N 41°21' E 002°10'0 0.0
2018-Apr-13 00:30N 41°21' E 002°10'0 0.0
2018-Apr-12 23:57N 41°21' E 002°10'0 0.0
2018-Apr-12 23:30N 41°21' E 002°10'0 0.0
2018-Apr-12 23:00N 41°21' E 002°10'0 0.0
2018-Apr-12 22:30N 41°21' E 002°10'0 0.0
2018-Apr-12 22:00N 41°21' E 002°11'0 0.0
2018-Apr-12 21:30N 41°21' E 002°11'0 0.0
2018-Apr-12 21:00N 41°21' E 002°11'0 0.0
2018-Apr-12 20:30N 41°21' E 002°11'0 0.0
2018-Apr-12 20:00N 41°21' E 002°11'0 0.0
2018-Apr-12 19:30N 41°21' E 002°10'0 0.0
2018-Apr-12 19:00N 41°21' E 002°10'0 0.0
2018-Apr-12 18:30N 41°21' E 002°10'0 0.0
2018-Apr-12 18:00N 41°21' E 002°10'0 0.0
2018-Apr-12 17:30N 41°21' E 002°10'0 0.0
2018-Apr-12 16:57N 41°21' E 002°10'0 0.0
2018-Apr-12 16:30N 41°21' E 002°10'0 0.0
2018-Apr-12 16:00N 41°21' E 002°10'0 0.0
2018-Apr-12 15:30N 41°21' E 002°10'0 0.0
2018-Apr-12 15:00N 41°21' E 002°10'0 0.0
2018-Apr-12 14:30N 41°21' E 002°11'0 0.0
2018-Apr-12 14:00N 41°21' E 002°11'0 0.0
2018-Apr-12 13:28N 41°21' E 002°11'0 0.0
2018-Apr-12 12:58N 41°21' E 002°11'0 0.0
2018-Apr-12 12:28N 41°21' E 002°11'0 0.0
2018-Apr-12 11:58N 41°21' E 002°10'0 0.0
2018-Apr-12 11:28N 41°21' E 002°10'0 0.0
2018-Apr-12 10:58N 41°21' E 002°10'0 0.0
2018-Apr-12 10:28N 41°21' E 002°10'1 1.5
2018-Apr-12 10:01N 41°21' E 002°10'3 6.1
2018-Apr-12 09:30N 41°18' E 002°11'6213.8
2018-Apr-12 05:00N 41°36' E 003°30'18716.8 310 / 33995.410.8 11.010.010.0
2018-Apr-11 17:54N 43°18' E 007°02'717.9
2018-Apr-11 17:31N 43°24' E 007°07'918.4
2018-Apr-11 17:00N 43°31' E 007°15'816.3
2018-Apr-11 16:30N 43°39' E 007°19'2 0.2
2018-Apr-11 03:42N 43°41' E 007°19'1 6.1
2018-Apr-11 03:29N 43°40' E 007°19'4 7.9
2018-Apr-11 03:00N 43°38' E 007°24'4711.8
2018-Apr-10 23:01N 43°57' E 008°24'012.4
2018-Apr-10 23:00N 43°58' E 008°24'612.1
2018-Apr-10 22:30N 44°01' E 008°30'611.9
2018-Apr-10 22:00N 44°05' E 008°36'714.1
2018-Apr-10 21:30N 44°10' E 008°43'714.0
2018-Apr-10 21:00N 44°15' E 008°51'612.5
2018-Apr-10 20:30N 44°19' E 008°57'5 9.3
2018-Apr-10 20:00N 44°24' E 008°56'1 2.2
2018-Apr-10 19:28N 44°25' E 008°55'0 0.0
2018-Apr-10 18:52N 44°25' E 008°55'0 0.0
2018-Apr-10 18:28N 44°25' E 008°55'0 0.0
2018-Apr-10 17:52N 44°25' E 008°55'0 0.0
2018-Apr-10 17:19N 44°25' E 008°55'0 0.0
2018-Apr-10 16:55N 44°25' E 008°55'0 0.0
2018-Apr-10 16:28N 44°25' E 008°55'0 0.0
2018-Apr-10 15:58N 44°25' E 008°55'0 0.0
2018-Apr-10 15:28N 44°25' E 008°55'0 0.0
2018-Apr-10 14:55N 44°25' E 008°55'0 0.0
2018-Apr-10 14:28N 44°25' E 008°55'0 0.0
2018-Apr-10 13:58N 44°25' E 008°55'0 0.0
2018-Apr-10 13:25N 44°25' E 008°55'0 0.0
2018-Apr-10 12:58N 44°25' E 008°55'0 0.0
2018-Apr-10 12:28N 44°25' E 008°55'0 0.0
2018-Apr-10 11:58N 44°25' E 008°55'0 0.0
2018-Apr-10 11:28N 44°25' E 008°55'0 0.0
2018-Apr-10 10:58N 44°25' E 008°55'0 0.0
2018-Apr-10 10:28N 44°25' E 008°55'0 0.0
2018-Apr-10 09:58N 44°25' E 008°55'0 0.0
2018-Apr-10 09:28N 44°25' E 008°55'0 0.0
2018-Apr-10 08:58N 44°25' E 008°55'0 0.0
2018-Apr-10 08:28N 44°25' E 008°55'0 0.0
2018-Apr-10 07:58N 44°25' E 008°55'0 0.0
2018-Apr-10 07:28N 44°25' E 008°55'0 0.0
2018-Apr-10 06:52N 44°25' E 008°55'0 0.0
2018-Apr-10 06:26N 44°25' E 008°55'1 3.3
2018-Apr-10 06:00N 44°24' E 008°56'510.2
2018-Apr-10 05:31N 44°19' E 008°60'714.9
2018-Apr-10 05:01N 44°13' E 009°05'713.8
2018-Apr-10 04:30N 44°07' E 009°09'714.1
2018-Apr-10 04:01N 44°01' E 009°14'713.9
2018-Apr-10 03:30N 43°54' E 009°19'714.5
2018-Apr-10 03:00N 43°48' E 009°24'714.7
2018-Apr-10 02:30N 43°42' E 009°29'815.6
2018-Apr-10 02:01N 43°35' E 009°34'917.2
2018-Apr-10 01:30N 43°27' E 009°40'816.9
2018-Apr-10 01:00N 43°20' E 009°46'816.9
2018-Apr-10 00:30N 43°13' E 009°53'  
Track history (hours):
 
Tides and Currents Weather Stations Pressure Air Temp Water Temp Dewpoint Dewpoint Depression Visibility Wind Speed Wind Dir Waves Ship Positions

Pacific Princess (Bermuda)

Last reported at 2018-Apr-19 23:00 UTC. Time now 2018-Apr-20 06:29 UTC.
Position N 34°12' W 032°12'.

Length 180.5 m; beam 25.6 m; draft 6 m.

Type: Passenger vessel. MMSI: 310504000.

Wind from 010 at 15 knots

Barometer 1033.8 mb
Air temperature 16.5 ° C
Visibility: greater than 10.8 NM
Dewpoint 13.9 ° C
Water temperature 20.0 ° C

Date/timePositionNaut miles runAvg speedWind from/ knotsBaromVisibWave heightAir tempDewpointWater temp
2018-Apr-19 23:00N 34°12' W 032°12'8020.1 010 / 151033.810.8 16.513.920.0
2018-Apr-19 19:00N 34°00' W 030°36'20617.2 360 / 151031.310.8 17.514.018.0
2018-Apr-19 07:00N 33°36' W 026°30'14215.8 350 / 271024.510.8 16.013.318.0
2018-Apr-18 22:00N 33°12' W 023°42'7619.1 310 / 151022.510.8 15.513.720.0
2018-Apr-18 18:00N 33°00' W 022°12'11414.2 270 / 51020.810.8 18.014.620.0
2018-Apr-18 10:00N 32°36' W 024°24'31478.6 350 / 121020.410.8 19.116.520.0
2018-Apr-18 06:00N 32°18' W 018°12'10616.1 220 / 121019.210.8 18.516.020.0
2018-Apr-17 23:27N 31°60' W 016°09'2518.5
2018-Apr-17 22:06N 31°60' W 015°40'218.8
2018-Apr-17 22:00N 31°60' W 015°38'1018.8
2018-Apr-17 21:29N 32°00' W 015°26'918.8
2018-Apr-17 21:00N 32°00' W 015°16'1318.8
2018-Apr-17 20:19N 31°60' W 015°00'619.1
2018-Apr-17 20:00N 32°00' W 014°53'919.0
2018-Apr-17 19:30N 31°60' W 014°42'919.0
2018-Apr-17 19:00N 32°00' W 014°31'2120.8
2018-Apr-17 18:00N 32°00' W 014°06'23918.4 050 / 121019.610.8 19.517.016.0
2018-Apr-17 05:00N 34°00' W 010°00'245 7.6 070 / 151021.210.8 15.013.214.0
2018-Apr-15 20:47N 35°57' W 005°37'3 9.2
2018-Apr-15 20:30N 35°58' W 005°34'510.4
2018-Apr-15 20:00N 35°60' W 005°28'5 9.7
2018-Apr-15 19:29N 36°03' W 005°23'611.6
2018-Apr-15 19:00N 36°09' W 005°23'1 0.2
2018-Apr-15 15:01N 36°09' W 005°22'0 0.0
2018-Apr-15 13:40N 36°09' W 005°22'0 0.0
2018-Apr-15 13:16N 36°09' W 005°22'0 0.0
2018-Apr-15 04:49N 36°09' W 005°22'0 1.1
2018-Apr-15 04:29N 36°09' W 005°22'3 6.9
2018-Apr-15 04:00N 36°05' W 005°21'611.3
2018-Apr-15 03:30N 36°05' W 005°14'8412.9
2018-Apr-14 21:00N 36°12' W 003°30'4912.2 270 / 301018.010.8 16.013.914.0
2018-Apr-14 17:00N 36°18' W 002°30'9417.7 240 / 271014.110.8 17.015.314.0
2018-Apr-14 11:39N 37°17' W 000°58'317.3
2018-Apr-14 11:28N 37°19' W 000°55'817.3
2018-Apr-14 11:01N 37°24' W 000°47'1017.3
2018-Apr-14 10:25N 37°31' W 000°38'717.6
2018-Apr-14 10:00N 37°36' W 000°31'817.1
2018-Apr-14 09:30N 37°43' W 000°25'917.5
2018-Apr-14 09:01N 37°51' W 000°19'917.5
2018-Apr-14 08:30N 37°58' W 000°13'27779.0
2018-Apr-14 05:00N 41°36' E 003°30'75 8.5 340 / 131013.610.8 15.011.312.0
2018-Apr-13 20:11N 41°01' E 002°02'317.4
2018-Apr-13 20:00N 41°04' E 002°04'917.3
2018-Apr-13 19:31N 41°12' E 002°09'714.8
2018-Apr-13 19:00N 41°19' E 002°10'2 3.7
2018-Apr-13 18:30N 41°21' E 002°10'0 0.0
2018-Apr-13 18:00N 41°21' E 002°10'0 0.0
2018-Apr-13 16:51N 41°21' E 002°10'0 0.0
2018-Apr-13 16:30N 41°21' E 002°10'0 0.0
2018-Apr-13 16:00N 41°21' E 002°10'0 0.0
2018-Apr-13 15:30N 41°21' E 002°10'0 0.0
2018-Apr-13 15:00N 41°21' E 002°10'0 0.0
2018-Apr-13 14:30N 41°21' E 002°10'0 0.0
2018-Apr-13 14:00N 41°21' E 002°10'0 0.0
2018-Apr-13 13:27N 41°21' E 002°10'0 0.0
2018-Apr-13 13:00N 41°21' E 002°10'0 0.0
2018-Apr-13 12:30N 41°21' E 002°10'0 0.0
2018-Apr-13 12:00N 41°21' E 002°10'0 0.0
2018-Apr-13 11:30N 41°21' E 002°10'0 0.0
2018-Apr-13 11:00N 41°21' E 002°10'0 0.0
2018-Apr-13 10:30N 41°21' E 002°11'0 0.0
2018-Apr-13 10:00N 41°21' E 002°11'0 0.0
2018-Apr-13 09:30N 41°21' E 002°10'0 0.0
2018-Apr-13 09:00N 41°21' E 002°11'0 0.0
2018-Apr-13 08:30N 41°21' E 002°11'0 0.0
2018-Apr-13 06:54N 41°21' E 002°10'0 0.0
2018-Apr-13 06:27N 41°21' E 002°10'0 0.0
2018-Apr-13 06:00N 41°21' E 002°10'0 0.0
2018-Apr-13 05:30N 41°21' E 002°10'0 0.0
2018-Apr-13 05:00N 41°21' E 002°10'0 0.0
2018-Apr-13 04:30N 41°21' E 002°10'0 0.0
2018-Apr-13 03:54N 41°21' E 002°10'0 0.0
2018-Apr-13 03:30N 41°21' E 002°10'0 0.0
2018-Apr-13 03:00N 41°21' E 002°10'0 0.0
2018-Apr-13 02:30N 41°21' E 002°10'0 0.0
2018-Apr-13 02:00N 41°21' E 002°10'0 0.0
2018-Apr-13 01:30N 41°21' E 002°10'0 0.0
2018-Apr-13 01:00N 41°21' E 002°10'0 0.0
2018-Apr-13 00:30N 41°21' E 002°10'0 0.0
2018-Apr-12 23:57N 41°21' E 002°10'0 0.0
2018-Apr-12 23:30N 41°21' E 002°10'0 0.0
2018-Apr-12 23:00N 41°21' E 002°10'0 0.0
2018-Apr-12 22:30N 41°21' E 002°10'0 0.0
2018-Apr-12 22:00N 41°21' E 002°11'0 0.0
2018-Apr-12 21:30N 41°21' E 002°11'0 0.0
2018-Apr-12 21:00N 41°21' E 002°11'0 0.0
2018-Apr-12 20:30N 41°21' E 002°11'0 0.0
2018-Apr-12 20:00N 41°21' E 002°11'0 0.0
2018-Apr-12 19:30N 41°21' E 002°10'0 0.0
2018-Apr-12 19:00N 41°21' E 002°10'0 0.0
2018-Apr-12 18:30N 41°21' E 002°10'0 0.0
2018-Apr-12 18:00N 41°21' E 002°10'0 0.0
2018-Apr-12 17:30N 41°21' E 002°10'0 0.0
2018-Apr-12 16:57N 41°21' E 002°10'0 0.0
2018-Apr-12 16:30N 41°21' E 002°10'0 0.0
2018-Apr-12 16:00N 41°21' E 002°10'0 0.0
2018-Apr-12 15:30N 41°21' E 002°10'0 0.0
2018-Apr-12 15:00N 41°21' E 002°10'0 0.0
2018-Apr-12 14:30N 41°21' E 002°11'0 0.0
2018-Apr-12 14:00N 41°21' E 002°11'0 0.0
2018-Apr-12 13:28N 41°21' E 002°11'0 0.0
2018-Apr-12 12:58N 41°21' E 002°11'0 0.0
2018-Apr-12 12:28N 41°21' E 002°11'0 0.0
2018-Apr-12 11:58N 41°21' E 002°10'0 0.0
2018-Apr-12 11:28N 41°21' E 002°10'0 0.0
2018-Apr-12 10:58N 41°21' E 002°10'0 0.0
2018-Apr-12 10:28N 41°21' E 002°10'1 1.5
2018-Apr-12 10:01N 41°21' E 002°10'3 6.1
2018-Apr-12 09:30N 41°18' E 002°11'6213.8
2018-Apr-12 05:00N 41°36' E 003°30'18716.8 310 / 33995.410.8 11.010.010.0
2018-Apr-11 17:54N 43°18' E 007°02'717.9
2018-Apr-11 17:31N 43°24' E 007°07'918.4
2018-Apr-11 17:00N 43°31' E 007°15'816.3
2018-Apr-11 16:30N 43°39' E 007°19'2 0.2
2018-Apr-11 03:42N 43°41' E 007°19'1 6.1
2018-Apr-11 03:29N 43°40' E 007°19'4 7.9
2018-Apr-11 03:00N 43°38' E 007°24'4711.8
2018-Apr-10 23:01N 43°57' E 008°24'012.4
2018-Apr-10 23:00N 43°58' E 008°24'612.1
2018-Apr-10 22:30N 44°01' E 008°30'611.9
2018-Apr-10 22:00N 44°05' E 008°36'714.1
2018-Apr-10 21:30N 44°10' E 008°43'714.0
2018-Apr-10 21:00N 44°15' E 008°51'612.5
2018-Apr-10 20:30N 44°19' E 008°57'5 9.3
2018-Apr-10 20:00N 44°24' E 008°56'1 2.2
2018-Apr-10 19:28N 44°25' E 008°55'0 0.0
2018-Apr-10 18:52N 44°25' E 008°55'0 0.0
2018-Apr-10 18:28N 44°25' E 008°55'0 0.0
2018-Apr-10 17:52N 44°25' E 008°55'0 0.0
2018-Apr-10 17:19N 44°25' E 008°55'0 0.0
2018-Apr-10 16:55N 44°25' E 008°55'0 0.0
2018-Apr-10 16:28N 44°25' E 008°55'0 0.0
2018-Apr-10 15:58N 44°25' E 008°55'0 0.0
2018-Apr-10 15:28N 44°25' E 008°55'0 0.0
2018-Apr-10 14:55N 44°25' E 008°55'0 0.0
2018-Apr-10 14:28N 44°25' E 008°55'0 0.0
2018-Apr-10 13:58N 44°25' E 008°55'0 0.0
2018-Apr-10 13:25N 44°25' E 008°55'0 0.0
2018-Apr-10 12:58N 44°25' E 008°55'0 0.0
2018-Apr-10 12:28N 44°25' E 008°55'0 0.0
2018-Apr-10 11:58N 44°25' E 008°55'0 0.0
2018-Apr-10 11:28N 44°25' E 008°55'0 0.0
2018-Apr-10 10:58N 44°25' E 008°55'0 0.0
2018-Apr-10 10:28N 44°25' E 008°55'0 0.0
2018-Apr-10 09:58N 44°25' E 008°55'0 0.0
2018-Apr-10 09:28N 44°25' E 008°55'0 0.0
2018-Apr-10 08:58N 44°25' E 008°55'0 0.0
2018-Apr-10 08:28N 44°25' E 008°55'0 0.0
2018-Apr-10 07:58N 44°25' E 008°55'0 0.0
2018-Apr-10 07:28N 44°25' E 008°55'0 0.0
2018-Apr-10 06:52N 44°25' E 008°55'0 0.0
2018-Apr-10 06:26N 44°25' E 008°55'1 3.3
2018-Apr-10 06:00N 44°24' E 008°56'510.2
2018-Apr-10 05:31N 44°19' E 008°60'714.9
2018-Apr-10 05:01N 44°13' E 009°05'713.8
2018-Apr-10 04:30N 44°07' E 009°09'714.1
2018-Apr-10 04:01N 44°01' E 009°14'713.9
2018-Apr-10 03:30N 43°54' E 009°19'714.5
2018-Apr-10 03:00N 43°48' E 009°24'714.7
2018-Apr-10 02:30N 43°42' E 009°29'815.6
2018-Apr-10 02:01N 43°35' E 009°34'917.2
2018-Apr-10 01:30N 43°27' E 009°40'816.9
2018-Apr-10 01:00N 43°20' E 009°46'816.9
2018-Apr-10 00:30N 43°13' E 009°53'  

Dump ship's entire track history